sensor_id;sensor_type;location;lat;lon;timestamp;temperature;humidity
41944;DHT22;27636;52.610;13.244;2023-05-10T00:00:57;12.50;80.10
41944;DHT22;27636;52.610;13.244;2023-05-10T00:06:01;12.40;81.10
41944;DHT22;27636;52.610;13.244;2023-05-10T00:11:06;12.30;81.70
41944;DHT22;27636;52.610;13.244;2023-05-10T00:16:09;12.10;82.50
41944;DHT22;27636;52.610;13.244;2023-05-10T00:21:15;12.00;83.40
41944;DHT22;27636;52.610;13.244;2023-05-10T00:26:19;11.80;83.80
41944;DHT22;27636;52.610;13.244;2023-05-10T00:31:27;11.90;84.50
41944;DHT22;27636;52.610;13.244;2023-05-10T00:36:30;11.70;85.00
41944;DHT22;27636;52.610;13.244;2023-05-10T00:41:35;11.80;85.10
41944;DHT22;27636;52.610;13.244;2023-05-10T00:46:41;11.70;85.60
41944;DHT22;27636;52.610;13.244;2023-05-10T00:51:45;11.60;86.00
41944;DHT22;27636;52.610;13.244;2023-05-10T00:56:50;11.60;86.10
41944;DHT22;27636;52.610;13.244;2023-05-10T01:01:54;11.50;87.00
41944;DHT22;27636;52.610;13.244;2023-05-10T01:06:58;11.30;88.10
41944;DHT22;27636;52.610;13.244;2023-05-10T01:12:04;11.30;88.30
41944;DHT22;27636;52.610;13.244;2023-05-10T01:17:11;11.10;89.50
41944;DHT22;27636;52.610;13.244;2023-05-10T01:33:39;10.80;90.70
41944;DHT22;27636;52.610;13.244;2023-05-10T01:38:50;10.80;91.20
41944;DHT22;27636;52.610;13.244;2023-05-10T01:43:59;10.90;90.90
41944;DHT22;27636;52.610;13.244;2023-05-10T01:49:08;10.70;91.30
41944;DHT22;27636;52.610;13.244;2023-05-10T01:54:17;10.60;92.00
41944;DHT22;27636;52.610;13.244;2023-05-10T01:59:22;10.70;91.60
41944;DHT22;27636;52.610;13.244;2023-05-10T02:04:31;10.60;91.80
41944;DHT22;27636;52.610;13.244;2023-05-10T02:09:36;10.60;92.10
41944;DHT22;27636;52.610;13.244;2023-05-10T02:14:41;10.50;92.50
41944;DHT22;27636;52.610;13.244;2023-05-10T02:19:46;10.50;92.50
41944;DHT22;27636;52.610;13.244;2023-05-10T02:24:50;10.50;92.70
41944;DHT22;27636;52.610;13.244;2023-05-10T02:29:54;10.40;93.20
41944;DHT22;27636;52.610;13.244;2023-05-10T02:35:01;10.40;93.40
41944;DHT22;27636;52.610;13.244;2023-05-10T02:40:07;10.30;93.50
41944;DHT22;27636;52.610;13.244;2023-05-10T02:45:19;10.40;93.40
41944;DHT22;27636;52.610;13.244;2023-05-10T02:50:27;10.30;93.50
41944;DHT22;27636;52.610;13.244;2023-05-10T02:55:34;10.50;93.30
41944;DHT22;27636;52.610;13.244;2023-05-10T03:00:38;10.30;93.70
41944;DHT22;27636;52.610;13.244;2023-05-10T03:05:44;10.20;94.10
41944;DHT22;27636;52.610;13.244;2023-05-10T03:10:55;10.10;94.60
41944;DHT22;27636;52.610;13.244;2023-05-10T03:16:07;10.30;94.20
41944;DHT22;27636;52.610;13.244;2023-05-10T03:21:13;10.20;94.50
41944;DHT22;27636;52.610;13.244;2023-05-10T03:26:24;10.10;94.60
41944;DHT22;27636;52.610;13.244;2023-05-10T03:31:36;10.10;95.00
41944;DHT22;27636;52.610;13.244;2023-05-10T03:36:42;10.10;94.90
41944;DHT22;27636;52.610;13.244;2023-05-10T03:41:46;10.10;94.90
41944;DHT22;27636;52.610;13.244;2023-05-10T03:46:49;10.20;94.60
41944;DHT22;27636;52.610;13.244;2023-05-10T03:51:54;10.20;94.40
41944;DHT22;27636;52.610;13.244;2023-05-10T03:56:58;10.10;95.00
41944;DHT22;27636;52.610;13.244;2023-05-10T04:02:02;10.20;94.50
41944;DHT22;27636;52.610;13.244;2023-05-10T04:07:07;10.30;94.40
41944;DHT22;27636;52.610;13.244;2023-05-10T04:12:12;10.50;93.90
41944;DHT22;27636;52.610;13.244;2023-05-10T04:17:16;10.60;93.60
41944;DHT22;27636;52.610;13.244;2023-05-10T04:22:21;10.50;93.90
41944;DHT22;27636;52.610;13.244;2023-05-10T04:27:24;10.70;93.60
41944;DHT22;27636;52.610;13.244;2023-05-10T04:32:27;10.90;92.90
41944;DHT22;27636;52.610;13.244;2023-05-10T04:37:32;11.10;92.40
41944;DHT22;27636;52.610;13.244;2023-05-10T04:42:36;11.20;92.20
41944;DHT22;27636;52.610;13.244;2023-05-10T04:47:39;11.20;91.80
41944;DHT22;27636;52.610;13.244;2023-05-10T04:52:44;11.30;91.30
41944;DHT22;27636;52.610;13.244;2023-05-10T04:57:48;11.40;91.60
41944;DHT22;27636;52.610;13.244;2023-05-10T05:02:51;11.70;91.20
41944;DHT22;27636;52.610;13.244;2023-05-10T05:07:56;12.10;90.40
41944;DHT22;27636;52.610;13.244;2023-05-10T05:12:59;14.10;83.00
41944;DHT22;27636;52.610;13.244;2023-05-10T05:18:03;15.40;77.20
41944;DHT22;27636;52.610;13.244;2023-05-10T05:23:08;16.80;72.50
41944;DHT22;27636;52.610;13.244;2023-05-10T05:28:12;17.70;68.10
41944;DHT22;27636;52.610;13.244;2023-05-10T05:33:15;18.80;64.00
41944;DHT22;27636;52.610;13.244;2023-05-10T05:38:20;18.50;62.60
41944;DHT22;27636;52.610;13.244;2023-05-10T05:43:24;19.00;61.60
41944;DHT22;27636;52.610;13.244;2023-05-10T05:48:29;19.10;61.00
41944;DHT22;27636;52.610;13.244;2023-05-10T05:53:34;19.90;58.80
41944;DHT22;27636;52.610;13.244;2023-05-10T05:58:37;19.90;58.50
41944;DHT22;27636;52.610;13.244;2023-05-10T06:03:41;20.40;57.10
41944;DHT22;27636;52.610;13.244;2023-05-10T06:08:46;20.50;57.40
41944;DHT22;27636;52.610;13.244;2023-05-10T06:13:49;21.10;56.10
41944;DHT22;27636;52.610;13.244;2023-05-10T06:18:53;21.30;55.60
41944;DHT22;27636;52.610;13.244;2023-05-10T06:23:57;21.40;55.40
41944;DHT22;27636;52.610;13.244;2023-05-10T06:29:01;21.50;55.70
41944;DHT22;27636;52.610;13.244;2023-05-10T06:34:05;21.40;55.60
41944;DHT22;27636;52.610;13.244;2023-05-10T06:39:12;22.50;54.40
41944;DHT22;27636;52.610;13.244;2023-05-10T06:44:15;22.00;53.70
41944;DHT22;27636;52.610;13.244;2023-05-10T06:49:19;21.40;54.50
41944;DHT22;27636;52.610;13.244;2023-05-10T06:54:24;22.10;55.10
41944;DHT22;27636;52.610;13.244;2023-05-10T06:59:27;22.50;53.60
41944;DHT22;27636;52.610;13.244;2023-05-10T07:04:31;22.60;53.20
41944;DHT22;27636;52.610;13.244;2023-05-10T07:09:36;23.20;52.20
41944;DHT22;27636;52.610;13.244;2023-05-10T07:14:39;23.50;51.90
41944;DHT22;27636;52.610;13.244;2023-05-10T07:19:43;23.30;51.60
41944;DHT22;27636;52.610;13.244;2023-05-10T07:24:47;23.40;52.70
41944;DHT22;27636;52.610;13.244;2023-05-10T07:29:52;24.50;50.60
41944;DHT22;27636;52.610;13.244;2023-05-10T07:34:55;23.80;52.50
41944;DHT22;27636;52.610;13.244;2023-05-10T07:40:00;24.40;51.20
41944;DHT22;27636;52.610;13.244;2023-05-10T07:45:05;23.40;51.50
41944;DHT22;27636;52.610;13.244;2023-05-10T07:50:09;23.70;51.20
41944;DHT22;27636;52.610;13.244;2023-05-10T07:55:14;24.70;49.80
41944;DHT22;27636;52.610;13.244;2023-05-10T08:00:19;24.40;50.20
41944;DHT22;27636;52.610;13.244;2023-05-10T08:05:23;23.70;51.30
41944;DHT22;27636;52.610;13.244;2023-05-10T08:10:28;25.10;49.70
41944;DHT22;27636;52.610;13.244;2023-05-10T08:15:31;24.60;49.10
41944;DHT22;27636;52.610;13.244;2023-05-10T08:20:35;24.10;49.60
41944;DHT22;27636;52.610;13.244;2023-05-10T08:25:40;24.60;49.00
41944;DHT22;27636;52.610;13.244;2023-05-10T08:30:44;24.20;50.00
41944;DHT22;27636;52.610;13.244;2023-05-10T08:35:48;24.80;49.00
41944;DHT22;27636;52.610;13.244;2023-05-10T08:40:54;24.70;50.40
41944;DHT22;27636;52.610;13.244;2023-05-10T08:46:04;25.50;48.50
41944;DHT22;27636;52.610;13.244;2023-05-10T08:51:09;25.70;47.80
41944;DHT22;27636;52.610;13.244;2023-05-10T08:56:16;26.90;47.70
41944;DHT22;27636;52.610;13.244;2023-05-10T09:01:21;27.10;47.20
41944;DHT22;27636;52.610;13.244;2023-05-10T09:06:25;26.70;45.40
41944;DHT22;27636;52.610;13.244;2023-05-10T09:11:30;26.10;46.80
41944;DHT22;27636;52.610;13.244;2023-05-10T09:16:34;26.60;45.40
41944;DHT22;27636;52.610;13.244;2023-05-10T09:21:38;27.80;46.10
41944;DHT22;27636;52.610;13.244;2023-05-10T09:26:47;27.70;44.70
41944;DHT22;27636;52.610;13.244;2023-05-10T09:31:54;26.70;46.00
41944;DHT22;27636;52.610;13.244;2023-05-10T09:36:59;27.20;44.70
41944;DHT22;27636;52.610;13.244;2023-05-10T09:42:09;27.10;46.80
41944;DHT22;27636;52.610;13.244;2023-05-10T09:47:17;28.10;44.90
41944;DHT22;27636;52.610;13.244;2023-05-10T09:52:22;27.20;45.60
41944;DHT22;27636;52.610;13.244;2023-05-10T09:57:26;27.50;45.30
41944;DHT22;27636;52.610;13.244;2023-05-10T10:02:31;27.70;44.80
41944;DHT22;27636;52.610;13.244;2023-05-10T10:07:34;28.10;43.90
41944;DHT22;27636;52.610;13.244;2023-05-10T10:12:40;27.80;45.80
41944;DHT22;27636;52.610;13.244;2023-05-10T10:17:45;28.80;43.20
41944;DHT22;27636;52.610;13.244;2023-05-10T10:22:50;27.00;45.10
41944;DHT22;27636;52.610;13.244;2023-05-10T10:28:24;27.20;46.30
41944;DHT22;27636;52.610;13.244;2023-05-10T10:33:39;27.30;44.60
41944;DHT22;27636;52.610;13.244;2023-05-10T10:38:57;27.00;46.10
41944;DHT22;27636;52.610;13.244;2023-05-10T10:44:27;26.80;47.60
41944;DHT22;27636;52.610;13.244;2023-05-10T10:49:43;27.60;46.00
41944;DHT22;27636;52.610;13.244;2023-05-10T10:54:52;26.90;44.90
41944;DHT22;27636;52.610;13.244;2023-05-10T11:00:25;26.30;46.60
41944;DHT22;27636;52.610;13.244;2023-05-10T11:05:40;27.40;46.60
41944;DHT22;27636;52.610;13.244;2023-05-10T11:11:02;27.30;44.20
41944;DHT22;27636;52.610;13.244;2023-05-10T11:16:18;27.50;45.70
41944;DHT22;27636;52.610;13.244;2023-05-10T11:21:22;28.30;45.70
41944;DHT22;27636;52.610;13.244;2023-05-10T11:26:30;27.50;44.50
41944;DHT22;27636;52.610;13.244;2023-05-10T11:31:35;27.00;45.10
41944;DHT22;27636;52.610;13.244;2023-05-10T11:36:51;27.00;47.30
41944;DHT22;27636;52.610;13.244;2023-05-10T11:41:55;27.20;43.20
41944;DHT22;27636;52.610;13.244;2023-05-10T11:47:00;26.50;43.90
41944;DHT22;27636;52.610;13.244;2023-05-10T11:52:05;26.80;45.00
41944;DHT22;27636;52.610;13.244;2023-05-10T11:57:09;27.50;44.00
41944;DHT22;27636;52.610;13.244;2023-05-10T12:02:14;28.50;44.00
41944;DHT22;27636;52.610;13.244;2023-05-10T12:07:18;27.60;43.50
41944;DHT22;27636;52.610;13.244;2023-05-10T12:12:22;28.00;43.20
41944;DHT22;27636;52.610;13.244;2023-05-10T12:17:29;27.30;43.00
41944;DHT22;27636;52.610;13.244;2023-05-10T12:22:33;28.70;41.40
41944;DHT22;27636;52.610;13.244;2023-05-10T12:27:37;28.20;42.10
41944;DHT22;27636;52.610;13.244;2023-05-10T12:32:44;27.90;41.60
41944;DHT22;27636;52.610;13.244;2023-05-10T12:37:48;28.00;42.70
41944;DHT22;27636;52.610;13.244;2023-05-10T12:42:51;28.10;42.00
41944;DHT22;27636;52.610;13.244;2023-05-10T12:47:57;27.50;42.40
41944;DHT22;27636;52.610;13.244;2023-05-10T12:53:00;26.80;42.80
41944;DHT22;27636;52.610;13.244;2023-05-10T12:58:05;27.50;44.30
41944;DHT22;27636;52.610;13.244;2023-05-10T13:03:10;27.00;43.80
41944;DHT22;27636;52.610;13.244;2023-05-10T13:08:13;27.10;43.70
41944;DHT22;27636;52.610;13.244;2023-05-10T13:13:17;27.20;43.00
41944;DHT22;27636;52.610;13.244;2023-05-10T13:18:22;27.20;45.90
41944;DHT22;27636;52.610;13.244;2023-05-10T13:23:27;26.80;44.30
41944;DHT22;27636;52.610;13.244;2023-05-10T13:28:31;26.90;44.70
41944;DHT22;27636;52.610;13.244;2023-05-10T13:33:36;27.00;45.80
41944;DHT22;27636;52.610;13.244;2023-05-10T13:38:39;27.10;44.50
41944;DHT22;27636;52.610;13.244;2023-05-10T13:43:43;26.80;45.30
41944;DHT22;27636;52.610;13.244;2023-05-10T13:48:47;26.30;44.60
41944;DHT22;27636;52.610;13.244;2023-05-10T13:53:51;26.80;44.80
41944;DHT22;27636;52.610;13.244;2023-05-10T13:58:55;26.80;44.60
41944;DHT22;27636;52.610;13.244;2023-05-10T14:04:01;26.30;46.00
41944;DHT22;27636;52.610;13.244;2023-05-10T14:09:04;26.80;45.00
41944;DHT22;27636;52.610;13.244;2023-05-10T14:14:08;26.70;43.80
41944;DHT22;27636;52.610;13.244;2023-05-10T14:19:13;26.40;45.40
41944;DHT22;27636;52.610;13.244;2023-05-10T14:24:17;26.50;44.60
41944;DHT22;27636;52.610;13.244;2023-05-10T14:29:20;26.40;44.20
41944;DHT22;27636;52.610;13.244;2023-05-10T14:34:25;25.10;45.70
41944;DHT22;27636;52.610;13.244;2023-05-10T14:39:28;24.70;47.10
41944;DHT22;27636;52.610;13.244;2023-05-10T14:44:33;23.90;48.60
41944;DHT22;27636;52.610;13.244;2023-05-10T14:49:38;23.90;48.40
41944;DHT22;27636;52.610;13.244;2023-05-10T14:54:41;23.50;48.60
41944;DHT22;27636;52.610;13.244;2023-05-10T14:59:44;23.30;49.70
41944;DHT22;27636;52.610;13.244;2023-05-10T15:04:49;23.20;50.00
41944;DHT22;27636;52.610;13.244;2023-05-10T15:09:54;23.60;48.70
41944;DHT22;27636;52.610;13.244;2023-05-10T15:14:57;23.40;50.10
41944;DHT22;27636;52.610;13.244;2023-05-10T15:20:03;23.20;49.80
41944;DHT22;27636;52.610;13.244;2023-05-10T15:25:07;23.10;50.00
41944;DHT22;27636;52.610;13.244;2023-05-10T15:30:11;22.90;50.20
41944;DHT22;27636;52.610;13.244;2023-05-10T15:35:17;22.90;50.30
41944;DHT22;27636;52.610;13.244;2023-05-10T15:40:21;23.20;50.50
41944;DHT22;27636;52.610;13.244;2023-05-10T15:45:24;24.00;48.50
41944;DHT22;27636;52.610;13.244;2023-05-10T15:50:29;24.30;47.80
41944;DHT22;27636;52.610;13.244;2023-05-10T15:55:32;24.90;48.70
41944;DHT22;27636;52.610;13.244;2023-05-10T16:00:37;25.10;48.00
41944;DHT22;27636;52.610;13.244;2023-05-10T16:05:42;24.90;47.10
41944;DHT22;27636;52.610;13.244;2023-05-10T16:10:45;24.40;48.40
41944;DHT22;27636;52.610;13.244;2023-05-10T16:15:49;23.80;49.60
41944;DHT22;27636;52.610;13.244;2023-05-10T16:20:53;23.90;60.40
41944;DHT22;27636;52.610;13.244;2023-05-10T16:25:57;23.10;68.30
41944;DHT22;27636;52.610;13.244;2023-05-10T16:31:01;22.20;72.20
41944;DHT22;27636;52.610;13.244;2023-05-10T16:36:06;21.70;75.00
41944;DHT22;27636;52.610;13.244;2023-05-10T16:41:10;21.80;76.20
41944;DHT22;27636;52.610;13.244;2023-05-10T16:46:14;21.80;75.20
41944;DHT22;27636;52.610;13.244;2023-05-10T16:51:18;21.70;77.30
41944;DHT22;27636;52.610;13.244;2023-05-10T16:56:22;21.90;76.50
41944;DHT22;27636;52.610;13.244;2023-05-10T17:01:26;21.80;77.50
41944;DHT22;27636;52.610;13.244;2023-05-10T17:06:31;21.90;78.30
41944;DHT22;27636;52.610;13.244;2023-05-10T17:11:35;21.10;80.50
41944;DHT22;27636;52.610;13.244;2023-05-10T17:16:38;20.90;82.20
41944;DHT22;27636;52.610;13.244;2023-05-10T17:21:43;20.40;85.70
41944;DHT22;27636;52.610;13.244;2023-05-10T17:26:47;20.10;86.60
41944;DHT22;27636;52.610;13.244;2023-05-10T17:31:50;19.80;89.00
41944;DHT22;27636;52.610;13.244;2023-05-10T17:36:56;19.60;90.50
41944;DHT22;27636;52.610;13.244;2023-05-10T17:42:00;19.30;91.40
41944;DHT22;27636;52.610;13.244;2023-05-10T17:47:03;19.10;92.70
41944;DHT22;27636;52.610;13.244;2023-05-10T17:52:08;18.70;94.10
41944;DHT22;27636;52.610;13.244;2023-05-10T17:57:12;18.60;95.60
41944;DHT22;27636;52.610;13.244;2023-05-10T18:02:15;18.30;97.90
41944;DHT22;27636;52.610;13.244;2023-05-10T18:07:20;18.10;99.50
41944;DHT22;27636;52.610;13.244;2023-05-10T18:12:25;17.60;99.90
41944;DHT22;27636;52.610;13.244;2023-05-10T18:17:29;17.60;99.90
41944;DHT22;27636;52.610;13.244;2023-05-10T18:22:35;17.50;99.90
41944;DHT22;27636;52.610;13.244;2023-05-10T18:27:38;17.30;99.90
41944;DHT22;27636;52.610;13.244;2023-05-10T18:32:42;16.90;99.90
41944;DHT22;27636;52.610;13.244;2023-05-10T18:37:46;17.00;99.90
41944;DHT22;27636;52.610;13.244;2023-05-10T18:42:51;16.90;99.90
41944;DHT22;27636;52.610;13.244;2023-05-10T18:47:54;16.50;99.90
41944;DHT22;27636;52.610;13.244;2023-05-10T18:52:59;16.40;99.90
41944;DHT22;27636;52.610;13.244;2023-05-10T18:58:02;16.30;99.90
41944;DHT22;27636;52.610;13.244;2023-05-10T19:03:06;16.30;99.90
41944;DHT22;27636;52.610;13.244;2023-05-10T19:08:10;16.20;99.90
41944;DHT22;27636;52.610;13.244;2023-05-10T19:13:14;16.10;99.90
41944;DHT22;27636;52.610;13.244;2023-05-10T19:18:18;15.90;99.90
41944;DHT22;27636;52.610;13.244;2023-05-10T19:23:24;15.60;99.90
41944;DHT22;27636;52.610;13.244;2023-05-10T19:28:28;15.30;99.90
41944;DHT22;27636;52.610;13.244;2023-05-10T19:33:32;15.10;99.90
41944;DHT22;27636;52.610;13.244;2023-05-10T19:38:36;14.90;99.90
41944;DHT22;27636;52.610;13.244;2023-05-10T19:43:41;14.60;99.90
41944;DHT22;27636;52.610;13.244;2023-05-10T19:48:44;14.40;99.90
41944;DHT22;27636;52.610;13.244;2023-05-10T19:53:51;14.20;99.90
41944;DHT22;27636;52.610;13.244;2023-05-10T19:58:55;14.00;99.90
41944;DHT22;27636;52.610;13.244;2023-05-10T20:03:58;13.90;99.90
41944;DHT22;27636;52.610;13.244;2023-05-10T20:09:03;13.80;99.90
41944;DHT22;27636;52.610;13.244;2023-05-10T20:14:07;13.70;99.90
41944;DHT22;27636;52.610;13.244;2023-05-10T20:19:11;13.60;99.90
41944;DHT22;27636;52.610;13.244;2023-05-10T20:24:16;13.60;99.90
41944;DHT22;27636;52.610;13.244;2023-05-10T20:29:20;13.50;99.90
41944;DHT22;27636;52.610;13.244;2023-05-10T20:34:23;13.60;99.90
41944;DHT22;27636;52.610;13.244;2023-05-10T20:39:28;13.40;99.90
41944;DHT22;27636;52.610;13.244;2023-05-10T20:44:32;13.30;99.90
41944;DHT22;27636;52.610;13.244;2023-05-10T20:49:35;13.20;99.90
41944;DHT22;27636;52.610;13.244;2023-05-10T20:54:41;13.10;99.90
41944;DHT22;27636;52.610;13.244;2023-05-10T20:59:44;13.00;99.90
41944;DHT22;27636;52.610;13.244;2023-05-10T21:04:48;12.90;99.90
41944;DHT22;27636;52.610;13.244;2023-05-10T21:09:52;12.80;99.90
41944;DHT22;27636;52.610;13.244;2023-05-10T21:14:56;12.60;99.90
41944;DHT22;27636;52.610;13.244;2023-05-10T21:19:59;12.50;99.90
41944;DHT22;27636;52.610;13.244;2023-05-10T21:25:06;12.50;99.90
41944;DHT22;27636;52.610;13.244;2023-05-10T21:30:10;12.40;99.90
41944;DHT22;27636;52.610;13.244;2023-05-10T21:35:14;12.40;99.90
41944;DHT22;27636;52.610;13.244;2023-05-10T21:40:19;12.30;99.90
41944;DHT22;27636;52.610;13.244;2023-05-10T21:45:23;12.20;99.90
41944;DHT22;27636;52.610;13.244;2023-05-10T21:50:26;12.20;99.90
41944;DHT22;27636;52.610;13.244;2023-05-10T21:55:32;12.20;99.90
41944;DHT22;27636;52.610;13.244;2023-05-10T22:00:36;12.20;99.90
41944;DHT22;27636;52.610;13.244;2023-05-10T22:05:40;12.40;99.90
41944;DHT22;27636;52.610;13.244;2023-05-10T22:10:45;12.60;99.90
41944;DHT22;27636;52.610;13.244;2023-05-10T22:15:49;12.70;99.90
41944;DHT22;27636;52.610;13.244;2023-05-10T22:20:54;12.80;99.90
41944;DHT22;27636;52.610;13.244;2023-05-10T22:26:00;13.00;99.90
41944;DHT22;27636;52.610;13.244;2023-05-10T22:31:08;13.00;99.90
41944;DHT22;27636;52.610;13.244;2023-05-10T22:36:12;13.00;99.90
41944;DHT22;27636;52.610;13.244;2023-05-10T22:41:18;13.00;99.90
41944;DHT22;27636;52.610;13.244;2023-05-10T22:46:22;13.10;99.90
41944;DHT22;27636;52.610;13.244;2023-05-10T22:51:25;13.20;99.90
41944;DHT22;27636;52.610;13.244;2023-05-10T22:56:31;13.00;99.90
41944;DHT22;27636;52.610;13.244;2023-05-10T23:01:34;12.90;99.90
41944;DHT22;27636;52.610;13.244;2023-05-10T23:06:37;12.70;99.90
41944;DHT22;27636;52.610;13.244;2023-05-10T23:11:43;12.60;99.90
41944;DHT22;27636;52.610;13.244;2023-05-10T23:16:46;12.60;99.90
41944;DHT22;27636;52.610;13.244;2023-05-10T23:21:50;12.50;99.90
41944;DHT22;27636;52.610;13.244;2023-05-10T23:26:54;12.40;99.90
41944;DHT22;27636;52.610;13.244;2023-05-10T23:31:58;12.30;99.90
41944;DHT22;27636;52.610;13.244;2023-05-10T23:37:02;12.20;99.90
41944;DHT22;27636;52.610;13.244;2023-05-10T23:42:07;11.90;99.90
41944;DHT22;27636;52.610;13.244;2023-05-10T23:47:11;11.70;99.90
41944;DHT22;27636;52.610;13.244;2023-05-10T23:52:14;11.60;99.90
41944;DHT22;27636;52.610;13.244;2023-05-10T23:57:20;11.50;99.90
